createdAt,value
2018-05-13T00:01:16.570Z,74.20
2018-05-13T00:03:46.296Z,75.50
2018-05-13T00:06:16.011Z,73.80
2018-05-13T00:08:45.730Z,72.60
2018-05-13T00:11:15.424Z,74.30
2018-05-13T00:13:45.904Z,72.70
2018-05-13T00:16:15.638Z,72.70
2018-05-13T00:18:45.338Z,73.80
2018-05-13T00:21:15.041Z,75.20
2018-05-13T00:23:44.779Z,75.80
2018-05-13T00:26:15.258Z,74.40
2018-05-13T00:28:44.952Z,74.40
2018-05-13T00:31:14.650Z,75.90
2018-05-13T00:33:45.401Z,73.30
2018-05-13T00:36:15.144Z,73.80
2018-05-13T00:38:44.854Z,75.40
2018-05-13T00:41:14.591Z,76.10
2018-05-13T00:43:45.080Z,74.70
2018-05-13T00:46:14.763Z,74.70
2018-05-13T00:48:44.473Z,76.50
2018-05-13T00:51:14.188Z,77.10
2018-05-13T00:53:43.921Z,72.70
2018-05-13T00:56:13.664Z,71.10
2018-05-13T00:58:44.160Z,69.10
2018-05-13T01:01:13.849Z,69.10
2018-05-13T01:03:43.544Z,70.40
2018-05-13T01:06:13.265Z,70.40
2018-05-13T01:08:43.000Z,70.20
2018-05-13T01:11:12.729Z,70.30
2018-05-13T01:13:42.424Z,70.30
2018-05-13T01:16:12.138Z,70.30
2018-05-13T01:18:41.840Z,70.50
2018-05-13T01:21:11.559Z,70.80
2018-05-13T01:23:41.531Z,71.20
2018-05-13T01:26:11.266Z,71.30
2018-05-13T01:28:41.815Z,71.40
2018-05-13T01:31:11.545Z,71.80
2018-05-13T01:33:42.001Z,72.10
2018-05-13T01:36:11.740Z,72.10
2018-05-13T01:38:41.479Z,72.50
2018-05-13T01:41:11.246Z,72.80
2018-05-13T01:43:40.954Z,72.90
2018-05-13T01:46:10.670Z,72.90
2018-05-13T01:48:45.811Z,72.90
2018-05-13T01:51:15.477Z,73.10
2018-05-13T01:53:45.976Z,73.50
2018-05-13T01:56:15.674Z,73.40
2018-05-13T01:58:45.380Z,73.60
2018-05-13T02:01:15.131Z,73.70
2018-05-13T02:03:45.584Z,73.90
2018-05-13T02:06:16.415Z,73.90
2018-05-13T02:08:46.616Z,75.00
2018-05-13T02:11:17.155Z,75.80
2018-05-13T02:13:46.857Z,75.70
2018-05-13T02:16:17.322Z,76.00
2018-05-13T02:18:47.041Z,76.00
2018-05-13T02:21:16.762Z,75.70
2018-05-13T02:23:47.306Z,75.90
2018-05-13T02:26:17.036Z,76.00
2018-05-13T02:28:47.492Z,76.20
2018-05-13T02:31:17.219Z,76.20
2018-05-13T02:33:46.944Z,76.10
2018-05-13T02:36:16.660Z,76.10
2018-05-13T02:38:46.377Z,76.10
2018-05-13T02:41:16.146Z,76.10
2018-05-13T02:43:46.447Z,75.90
2018-05-13T02:46:16.946Z,76.00
2018-05-13T02:48:46.735Z,76.00
2018-05-13T02:51:16.476Z,76.10
2018-05-13T02:53:46.944Z,76.10
2018-05-13T02:56:16.858Z,76.10
2018-05-13T02:58:46.567Z,76.00
2018-05-13T03:01:18.716Z,76.00
2018-05-13T03:03:49.202Z,75.90
2018-05-13T03:06:18.933Z,75.90
2018-05-13T03:08:48.655Z,76.00
2018-05-13T03:11:19.137Z,76.10
2018-05-13T03:13:48.845Z,76.00
2018-05-13T03:16:19.590Z,76.00
2018-05-13T03:18:49.291Z,76.00
2018-05-13T03:21:19.196Z,76.00
2018-05-13T03:23:48.895Z,75.70
2018-05-13T03:26:18.594Z,75.60
2018-05-13T03:28:48.296Z,75.60
2018-05-13T03:31:19.222Z,75.50
2018-05-13T03:33:49.699Z,75.30
2018-05-13T03:36:19.423Z,75.30
2018-05-13T03:38:50.074Z,75.40
2018-05-13T03:41:20.572Z,75.30
2018-05-13T03:43:50.303Z,75.30
2018-05-13T03:46:20.057Z,75.20
2018-05-13T03:48:49.812Z,75.10
2018-05-13T03:51:19.535Z,75.10
2018-05-13T03:53:49.242Z,74.80
2018-05-13T03:56:18.986Z,75.00
2018-05-13T03:58:49.480Z,74.80
2018-05-13T04:01:19.923Z,74.70
2018-05-13T04:03:49.615Z,74.80
2018-05-13T04:06:21.258Z,74.60
2018-05-13T04:09:03.479Z,74.50
2018-05-13T04:11:44.343Z,74.30
2018-05-13T04:14:25.133Z,74.30
2018-05-13T04:16:55.683Z,74.10
2018-05-13T04:19:26.625Z,74.10
2018-05-13T04:21:57.091Z,74.00
2018-05-13T04:24:26.814Z,74.00
2018-05-13T04:26:56.579Z,73.90
2018-05-13T04:29:26.341Z,74.20
2018-05-13T04:31:56.087Z,73.90
2018-05-13T04:34:26.620Z,73.90
2018-05-13T04:36:56.980Z,73.80
2018-05-13T04:39:26.711Z,73.80
2018-05-13T04:41:56.444Z,73.80
2018-05-13T04:44:26.942Z,73.70
2018-05-13T04:46:56.678Z,73.70
2018-05-13T04:49:27.136Z,73.70
2018-05-13T04:51:56.876Z,73.70
2018-05-13T04:54:26.864Z,73.80
2018-05-13T04:56:56.605Z,73.70
2018-05-13T04:59:26.364Z,73.70
2018-05-13T05:01:57.300Z,73.60
2018-05-13T05:04:27.811Z,73.50
2018-05-13T05:06:58.755Z,73.40
2018-05-13T05:09:29.243Z,73.60
2018-05-13T05:11:59.046Z,73.60
2018-05-13T05:14:28.777Z,73.20
2018-05-13T05:16:58.501Z,73.50
2018-05-13T05:19:28.666Z,73.30
2018-05-13T05:21:58.414Z,73.30
2018-05-13T05:24:28.146Z,73.10
2018-05-13T05:26:57.834Z,73.10
2018-05-13T05:29:27.550Z,73.40
2018-05-13T05:31:57.250Z,73.20
2018-05-13T05:34:26.963Z,73.10
2018-05-13T05:36:56.685Z,74.10
2018-05-13T05:39:26.416Z,74.00
2018-05-13T05:41:56.956Z,74.00
2018-05-13T05:44:27.447Z,74.30
2018-05-13T05:46:57.950Z,74.20
2018-05-13T05:49:28.062Z,74.10
2018-05-13T05:51:57.771Z,73.80
2018-05-13T05:54:27.477Z,73.70
2018-05-13T05:56:57.206Z,73.60
2018-05-13T05:59:26.907Z,73.60
2018-05-13T06:01:56.645Z,73.60
2018-05-13T06:04:26.373Z,73.50
2018-05-13T06:06:56.522Z,73.50
2018-05-13T06:09:27.961Z,73.50
2018-05-13T06:11:59.386Z,73.30
2018-05-13T06:14:30.801Z,73.40
2018-05-13T06:17:00.527Z,73.20
2018-05-13T06:19:30.242Z,73.30
2018-05-13T06:21:59.972Z,73.30
2018-05-13T06:24:29.665Z,73.40
2018-05-13T06:26:59.426Z,73.30
2018-05-13T06:29:29.158Z,73.40
2018-05-13T06:31:58.964Z,73.20
2018-05-13T06:34:28.788Z,73.20
2018-05-13T06:36:58.571Z,73.20
2018-05-13T06:39:28.273Z,73.20
2018-05-13T06:41:57.999Z,73.10
2018-05-13T06:44:27.719Z,73.00
2018-05-13T06:46:57.407Z,73.10
2018-05-13T06:49:27.140Z,73.10
2018-05-13T06:51:56.827Z,73.00
2018-05-13T06:54:27.856Z,72.80
2018-05-13T06:56:57.784Z,72.80
2018-05-13T06:59:28.100Z,72.80
2018-05-13T07:01:58.606Z,72.80
2018-05-13T07:04:28.319Z,72.80
2018-05-13T07:06:58.030Z,72.80
2018-05-13T07:09:28.523Z,72.70
2018-05-13T07:11:58.247Z,72.80
2018-05-13T07:14:27.946Z,72.80
2018-05-13T07:16:57.640Z,72.60
2018-05-13T07:19:27.375Z,72.70
2018-05-13T07:21:57.100Z,72.60
2018-05-13T07:24:27.791Z,72.50
2018-05-13T07:26:57.484Z,72.60
2018-05-13T07:29:27.587Z,72.60
2018-05-13T07:31:58.068Z,72.50
2018-05-13T07:34:27.795Z,72.50
2018-05-13T07:36:58.279Z,72.50
2018-05-13T07:39:28.016Z,72.50
2018-05-13T07:41:57.689Z,72.60
2018-05-13T07:44:27.431Z,72.60
2018-05-13T07:46:57.174Z,72.30
2018-05-13T07:49:26.906Z,72.40
2018-05-13T07:51:57.462Z,72.40
2018-05-13T07:54:27.161Z,72.30
2018-05-13T07:56:56.939Z,72.60
2018-05-13T07:59:27.470Z,72.40
2018-05-13T08:01:57.990Z,72.50
2018-05-13T08:04:27.883Z,72.50
2018-05-13T08:06:57.850Z,72.30
2018-05-13T08:09:27.603Z,72.30
2018-05-13T08:11:57.327Z,72.20
2018-05-13T08:14:27.044Z,72.40
2018-05-13T08:16:57.620Z,72.60
2018-05-13T08:19:27.367Z,72.20
2018-05-13T08:21:57.120Z,72.20
2018-05-13T08:24:27.619Z,72.20
2018-05-13T08:26:58.224Z,72.20
2018-05-13T08:29:29.598Z,72.30
2018-05-13T08:32:00.388Z,72.20
2018-05-13T08:34:30.124Z,72.20
2018-05-13T08:36:59.811Z,72.30
2018-05-13T08:39:29.627Z,72.10
2018-05-13T08:41:59.344Z,72.20
2018-05-13T08:44:29.040Z,72.20
2018-05-13T08:47:00.066Z,72.20
2018-05-13T08:49:29.790Z,71.90
2018-05-13T08:52:00.110Z,71.90
2018-05-13T08:54:29.834Z,72.10
2018-05-13T08:56:59.550Z,72.10
2018-05-13T08:59:29.313Z,72.10
2018-05-13T09:01:59.809Z,72.20
2018-05-13T09:04:30.073Z,73.00
2018-05-13T09:07:00.631Z,72.50
2018-05-13T09:09:30.344Z,72.50
2018-05-13T09:12:00.066Z,72.30
2018-05-13T09:14:29.938Z,72.20
2018-05-13T09:16:59.638Z,72.40
2018-05-13T09:19:30.119Z,72.40
2018-05-13T09:22:00.464Z,72.30
2018-05-13T09:24:30.161Z,72.20
2018-05-13T09:26:59.897Z,72.40
2018-05-13T09:29:29.598Z,72.50
2018-05-13T09:31:59.339Z,72.50
2018-05-13T09:34:30.169Z,72.80
2018-05-13T09:37:00.733Z,72.80
2018-05-13T09:39:30.424Z,72.80
2018-05-13T09:42:01.013Z,72.80
2018-05-13T09:44:30.771Z,72.80
2018-05-13T09:47:00.539Z,73.20
2018-05-13T09:49:30.427Z,73.10
2018-05-13T09:52:00.170Z,72.80
2018-05-13T09:54:29.915Z,72.70
2018-05-13T09:56:59.628Z,72.70
2018-05-13T09:59:29.333Z,73.00
2018-05-13T10:01:59.057Z,72.60
2018-05-13T10:04:28.818Z,72.50
2018-05-13T10:06:59.286Z,72.80
2018-05-13T10:09:29.059Z,72.50
2018-05-13T10:11:59.532Z,72.40
2018-05-13T10:14:29.208Z,72.40
2018-05-13T10:16:59.656Z,72.40
2018-05-13T10:19:29.462Z,72.40
2018-05-13T10:22:00.070Z,72.50
2018-05-13T10:24:30.611Z,72.60
2018-05-13T10:27:02.479Z,72.30
2018-05-13T10:29:32.214Z,72.20
2018-05-13T10:32:01.954Z,72.20
2018-05-13T10:34:31.691Z,72.20
2018-05-13T10:37:02.212Z,72.20
2018-05-13T10:39:31.971Z,72.20
2018-05-13T10:42:01.655Z,71.90
2018-05-13T10:44:31.944Z,71.70
2018-05-13T10:47:01.674Z,71.70
2018-05-13T10:49:32.193Z,72.00
2018-05-13T10:52:01.915Z,71.90
2018-05-13T10:54:32.404Z,72.40
2018-05-13T10:57:02.130Z,72.30
2018-05-13T10:59:31.827Z,70.20
2018-05-13T11:02:01.534Z,68.50
2018-05-13T11:04:31.285Z,65.90
2018-05-13T11:07:01.823Z,62.70
2018-05-13T11:09:32.268Z,61.10
2018-05-13T11:12:03.006Z,61.00
2018-05-13T11:14:32.884Z,59.10
2018-05-13T11:17:03.405Z,57.10
2018-05-13T11:19:33.106Z,57.10
2018-05-13T11:22:02.846Z,56.50
2018-05-13T11:24:33.336Z,55.00
2018-05-13T11:29:37.909Z,54.40
2018-05-13T11:32:08.433Z,53.70
2018-05-13T11:34:38.939Z,53.30
2018-05-13T11:37:08.665Z,53.20
2018-05-13T11:39:39.168Z,52.90
2018-05-13T11:42:08.895Z,52.90
2018-05-13T11:44:38.647Z,52.70
2018-05-13T11:47:08.371Z,52.40
2018-05-13T11:49:38.070Z,52.30
2018-05-13T11:52:07.788Z,52.50
2018-05-13T11:54:37.506Z,53.40
2018-05-13T11:57:07.220Z,56.80
2018-05-13T11:59:36.904Z,58.20
2018-05-13T12:02:06.693Z,57.10
2018-05-13T12:04:37.168Z,54.90
2018-05-13T12:07:07.640Z,57.70
2018-05-13T12:09:38.284Z,57.70
2018-05-13T12:12:08.744Z,61.30
2018-05-13T12:14:38.483Z,61.10
2018-05-13T12:17:08.194Z,58.80
2018-05-13T12:19:37.915Z,57.30
2018-05-13T12:22:07.630Z,56.40
2018-05-13T12:24:38.307Z,56.40
2018-05-13T12:27:08.026Z,59.70
2018-05-13T12:29:37.714Z,62.70
2018-05-13T12:32:07.439Z,61.60
2018-05-13T12:34:37.160Z,60.80
2018-05-13T12:37:06.868Z,61.20
2018-05-13T12:39:36.590Z,60.70
2018-05-13T12:42:06.350Z,60.50
2018-05-13T12:44:36.066Z,60.50
2018-05-13T12:47:06.546Z,60.60
2018-05-13T12:49:36.258Z,60.60
2018-05-13T12:52:05.970Z,60.70
2018-05-13T12:54:35.689Z,60.70
2018-05-13T12:57:05.423Z,60.80
2018-05-13T12:59:37.774Z,61.20
2018-05-13T13:02:07.488Z,61.10
2018-05-13T13:04:38.365Z,61.20
2018-05-13T13:07:08.071Z,61.30
2018-05-13T13:09:37.780Z,61.60
2018-05-13T13:12:08.442Z,61.70
2018-05-13T13:14:38.950Z,61.80
2018-05-13T13:17:08.682Z,62.00
2018-05-13T13:19:39.512Z,62.30
2018-05-13T13:22:09.323Z,62.60
2018-05-13T13:24:39.839Z,62.60
2018-05-13T13:27:10.407Z,62.60
2018-05-13T13:29:41.089Z,62.60
2018-05-13T13:32:11.293Z,62.60
2018-05-13T13:34:41.764Z,63.00
2018-05-13T13:37:11.454Z,63.00
2018-05-13T13:39:41.178Z,63.20
2018-05-13T13:42:10.899Z,63.50
2018-05-13T13:44:40.626Z,63.70
2018-05-13T13:47:10.388Z,64.00
2018-05-13T13:49:40.157Z,64.00
2018-05-13T13:52:09.916Z,64.30
2018-05-13T13:54:39.616Z,64.50
2018-05-13T13:57:09.392Z,64.50
2018-05-13T13:59:39.751Z,64.50
2018-05-13T14:02:10.201Z,64.60
2018-05-13T14:04:39.900Z,64.50
2018-05-13T14:07:09.616Z,64.50
2018-05-13T14:09:39.336Z,64.70
2018-05-13T14:12:09.054Z,65.00
2018-05-13T14:14:38.809Z,64.90
2018-05-13T14:17:09.311Z,65.30
2018-05-13T14:19:39.099Z,65.30
2018-05-13T14:22:08.845Z,65.30
2018-05-13T14:24:38.572Z,65.20
2018-05-13T14:27:09.078Z,65.40
2018-05-13T14:29:39.549Z,65.40
2018-05-13T14:32:09.276Z,65.50
2018-05-13T14:34:39.797Z,65.00
2018-05-13T14:37:10.181Z,65.50
2018-05-13T14:39:39.900Z,65.60
2018-05-13T14:42:11.453Z,65.80
2018-05-13T14:44:41.930Z,66.00
2018-05-13T14:47:11.679Z,66.00
2018-05-13T14:49:41.390Z,66.00
2018-05-13T14:52:11.158Z,66.30
2018-05-13T14:54:40.902Z,66.40
2018-05-13T14:57:10.723Z,66.50
2018-05-13T14:59:40.453Z,66.40
2018-05-13T15:02:10.979Z,66.70
2018-05-13T15:04:41.533Z,66.80
2018-05-13T15:07:11.255Z,66.80
2018-05-13T15:09:40.967Z,66.70
2018-05-13T15:12:10.663Z,66.90
2018-05-13T15:14:40.381Z,67.00
2018-05-13T15:17:10.141Z,67.20
2018-05-13T15:19:39.872Z,67.30
2018-05-13T15:22:10.543Z,67.50
2018-05-13T15:24:40.257Z,67.50
2018-05-13T15:27:10.009Z,67.50
2018-05-13T15:29:40.477Z,67.00
2018-05-13T15:32:10.207Z,67.00
2018-05-13T15:34:39.946Z,64.30
2018-05-13T15:37:09.795Z,61.90
2018-05-13T15:39:39.533Z,60.30
2018-05-13T15:42:09.283Z,59.20
2018-05-13T15:44:39.044Z,58.70
2018-05-13T15:47:09.577Z,57.90
2018-05-13T15:49:39.288Z,56.90
2018-05-13T15:52:09.004Z,55.90
2018-05-13T15:54:38.721Z,55.70
2018-05-13T15:57:09.341Z,56.40
2018-05-13T15:59:39.445Z,59.00
2018-05-13T16:02:09.165Z,60.10
2018-05-13T16:04:38.890Z,59.00
2018-05-13T16:07:08.603Z,57.20
2018-05-13T16:09:38.297Z,55.90
2018-05-13T16:12:08.089Z,59.10
2018-05-13T16:14:37.823Z,61.40
2018-05-13T16:17:07.530Z,61.70
2018-05-13T16:19:37.323Z,59.00
2018-05-13T16:22:07.037Z,57.60
2018-05-13T16:24:36.752Z,58.20
2018-05-13T16:27:06.461Z,60.70
2018-05-13T16:29:36.174Z,62.40
2018-05-13T16:32:05.901Z,60.60
2018-05-13T16:34:35.638Z,59.20
2018-05-13T16:37:05.365Z,62.40
2018-05-13T16:39:35.880Z,63.50
2018-05-13T16:42:05.618Z,63.50
2018-05-13T16:44:36.143Z,62.80
2018-05-13T16:47:06.674Z,64.80
2018-05-13T16:49:37.243Z,65.70
2018-05-13T16:52:06.949Z,65.70
2018-05-13T16:54:36.661Z,61.70
2018-05-13T16:57:06.372Z,63.00
2018-05-13T16:59:36.119Z,65.20
2018-05-13T17:02:05.870Z,66.70
2018-05-13T17:04:35.593Z,63.10
2018-05-13T17:07:05.331Z,62.70
2018-05-13T17:09:35.035Z,65.20
2018-05-13T17:12:04.788Z,67.00
2018-05-13T17:14:35.282Z,61.50
2018-05-13T17:17:05.037Z,61.50
2018-05-13T17:19:35.514Z,66.10
2018-05-13T17:22:05.203Z,66.00
2018-05-13T17:24:34.931Z,67.10
2018-05-13T17:27:04.642Z,63.20
2018-05-13T17:29:34.357Z,64.10
2018-05-13T17:32:04.164Z,66.40
2018-05-13T17:34:33.883Z,67.80
2018-05-13T17:37:03.594Z,64.30
2018-05-13T17:39:33.437Z,65.20
2018-05-13T17:42:03.935Z,68.50
2018-05-13T17:44:33.695Z,68.50
2018-05-13T17:47:03.432Z,65.10
2018-05-13T17:49:34.023Z,65.10
2018-05-13T17:52:04.715Z,68.80
2018-05-13T17:54:34.439Z,68.80
2018-05-13T17:57:04.252Z,66.80
2018-05-13T17:59:33.960Z,66.30
2018-05-13T18:02:03.710Z,68.30
2018-05-13T18:04:33.434Z,69.60
2018-05-13T18:07:03.930Z,67.40
2018-05-13T18:09:34.424Z,69.10
2018-05-13T18:12:04.955Z,70.10
2018-05-13T18:14:35.576Z,70.10
2018-05-13T18:17:05.294Z,65.90
2018-05-13T18:19:35.675Z,67.40
2018-05-13T18:22:05.373Z,69.20
2018-05-13T18:24:35.992Z,66.00
2018-05-13T18:27:06.489Z,68.60
2018-05-13T18:29:36.179Z,68.60
2018-05-13T18:32:05.891Z,70.10
2018-05-13T18:34:35.615Z,69.50
2018-05-13T18:37:05.341Z,67.90
2018-05-13T18:39:35.048Z,70.10
2018-05-13T18:42:04.981Z,71.10
2018-05-13T18:44:35.515Z,69.70
2018-05-13T18:47:06.110Z,71.00
2018-05-13T18:49:35.818Z,71.00
2018-05-13T18:52:05.528Z,72.00
2018-05-13T18:54:35.330Z,68.40
2018-05-13T18:57:05.086Z,70.70
2018-05-13T18:59:35.555Z,71.60
2018-05-13T19:02:05.256Z,71.50
2018-05-13T19:04:34.975Z,69.80
2018-05-13T19:07:04.688Z,71.60
2018-05-13T19:09:34.413Z,72.90
2018-05-13T19:12:04.213Z,70.80
2018-05-13T19:14:33.942Z,70.10
2018-05-13T19:17:03.688Z,71.70
2018-05-13T19:19:34.191Z,70.00
2018-05-13T19:22:03.924Z,69.80
2018-05-13T19:24:34.367Z,73.00
2018-05-13T19:27:04.090Z,73.00
2018-05-13T19:29:33.808Z,73.20
2018-05-13T19:32:03.498Z,70.40
2018-05-13T19:34:33.210Z,72.20
2018-05-13T19:37:02.902Z,73.70
2018-05-13T19:39:33.430Z,71.00
2018-05-13T19:42:03.888Z,72.40
2018-05-13T19:44:33.608Z,72.40
2018-05-13T19:47:03.312Z,73.70
2018-05-13T19:49:32.999Z,71.30
2018-05-13T19:52:02.701Z,72.60
2018-05-13T19:54:33.204Z,72.60
2018-05-13T19:57:02.956Z,72.50
2018-05-13T19:59:32.654Z,69.80
2018-05-13T20:02:02.398Z,71.90
2018-05-13T20:04:32.098Z,73.30
2018-05-13T20:07:01.794Z,70.90
2018-05-13T20:09:32.368Z,71.10
2018-05-13T20:12:02.143Z,72.80
2018-05-13T20:14:31.856Z,73.80
2018-05-13T20:17:02.382Z,71.50
2018-05-13T20:19:32.113Z,73.20
2018-05-13T20:22:01.798Z,74.20
2018-05-13T20:24:31.487Z,72.90
2018-05-13T20:27:01.940Z,73.30
2018-05-13T20:29:31.657Z,73.30
2018-05-13T20:32:01.359Z,74.40
2018-05-13T20:34:31.078Z,70.70
2018-05-13T20:37:00.811Z,72.20
2018-05-13T20:39:31.346Z,73.90
2018-05-13T20:42:01.098Z,74.60
2018-05-13T20:44:30.837Z,70.90
2018-05-13T20:47:00.590Z,73.20
2018-05-13T20:49:30.322Z,74.30
2018-05-13T20:52:00.892Z,72.40
2018-05-13T20:54:30.617Z,72.40
2018-05-13T20:57:00.349Z,73.90
2018-05-13T20:59:30.104Z,75.10
2018-05-13T21:01:59.831Z,72.20
2018-05-13T21:04:29.527Z,73.80
2018-05-13T21:06:59.282Z,75.00
2018-05-13T21:09:29.002Z,72.90
2018-05-13T21:11:58.718Z,72.20
2018-05-13T21:14:29.187Z,75.00
2018-05-13T21:16:58.967Z,75.00
2018-05-13T21:19:30.291Z,73.10
2018-05-13T21:21:59.986Z,73.10
2018-05-13T21:24:29.862Z,74.70
2018-05-13T21:26:59.576Z,75.40
2018-05-13T21:29:29.293Z,72.20
2018-05-13T21:31:59.004Z,73.70
2018-05-13T21:34:28.726Z,75.00
2018-05-13T21:36:58.427Z,73.50
2018-05-13T21:39:28.141Z,73.20
2018-05-13T21:41:57.845Z,74.90
2018-05-13T21:44:27.550Z,75.80
2018-05-13T21:46:57.235Z,71.40
2018-05-13T21:49:27.859Z,73.70
2018-05-13T21:51:58.317Z,73.60
2018-05-13T21:54:28.045Z,73.60
2018-05-13T21:56:58.560Z,75.30
2018-05-13T21:59:28.261Z,74.50
2018-05-13T22:01:57.980Z,75.60
2018-05-13T22:04:27.659Z,72.40
2018-05-13T22:06:58.131Z,75.60
2018-05-13T22:09:27.838Z,75.50
2018-05-13T22:11:57.543Z,75.30
2018-05-13T22:14:27.247Z,74.20
2018-05-13T22:16:56.995Z,75.00
2018-05-13T22:19:26.700Z,76.20
2018-05-13T22:21:57.583Z,73.20
2018-05-13T22:24:27.326Z,73.80
2018-05-13T22:26:57.034Z,75.30
2018-05-13T22:29:26.732Z,76.20
2018-05-13T22:31:56.479Z,73.90
2018-05-13T22:34:26.183Z,75.50
2018-05-13T22:36:55.917Z,76.40
2018-05-13T22:39:26.401Z,75.40
2018-05-13T22:41:56.122Z,75.40
2018-05-13T22:44:25.869Z,76.50
2018-05-13T22:46:55.716Z,76.00
2018-05-13T22:49:26.205Z,75.20
2018-05-13T22:51:56.668Z,76.50
2018-05-13T22:54:26.382Z,76.40
2018-05-13T22:56:56.156Z,73.90
2018-05-13T22:59:25.863Z,74.50
2018-05-13T23:01:56.389Z,76.70
2018-05-13T23:04:26.900Z,73.40
2018-05-13T23:06:56.643Z,73.30
2018-05-13T23:09:28.007Z,75.10
2018-05-13T23:11:57.719Z,76.40
2018-05-13T23:14:27.421Z,74.60
2018-05-13T23:16:57.304Z,74.20
2018-05-13T23:19:27.842Z,76.80
2018-05-13T23:21:58.292Z,74.20
2018-05-13T23:24:28.937Z,74.10
2018-05-13T23:26:58.657Z,75.70
2018-05-13T23:29:28.362Z,76.70
2018-05-13T23:31:58.082Z,75.30
2018-05-13T23:34:27.888Z,74.30
2018-05-13T23:36:57.595Z,76.00
2018-05-13T23:39:27.286Z,77.20
2018-05-13T23:41:56.998Z,74.10
2018-05-13T23:44:26.703Z,72.70
2018-05-13T23:46:57.293Z,74.20
2018-05-13T23:49:27.006Z,75.60
2018-05-13T23:51:56.731Z,75.40
2018-05-13T23:54:27.179Z,75.10
2018-05-13T23:56:56.915Z,75.00
2018-05-13T23:59:32.042Z,74.90
